Decoded Metar for UUDL ( in ) (IATA:) | Meteo·Mobile Aviation Weather
aviador You're here:

UUDL Decoded Metar

in
Report Time2019-02-22 19:30:00
UTC Time2019-02-22 20:10:16
Flight Rules vfr VFR
Wind350° at 12 kt
W.Decomp.*RWY 05: 6.0 kt HW 10.4 kt LCW
W.Rank350° ranks 28
Current wind is above 350° avg. (6.0)
Visibility9999 m
Phenomena:N/A
Clouds:N/A
Expected CloudBase > 2,800 ft AGL from Temp-Dew spread
CeilingNone
Temp-8°C
Dew Point-15°C (58% RH)
AAT-15.7°C
QNH1025 hPa
Raw Report
METAR UUDL 221930Z 35006MPS CAVOK M08/M15 Q1025 R23/450240 NOSIG RMK
QFE761=

Extra information for UUDL:More info

Social comments